createdAt,value
2017-05-13T00:00:38.555Z,0
2017-05-13T00:01:47.515Z,0
2017-05-13T00:02:56.474Z,0
2017-05-13T00:04:05.433Z,0
2017-05-13T00:05:14.644Z,0
2017-05-13T00:06:23.692Z,0
2017-05-13T00:07:32.650Z,0
2017-05-13T00:08:41.610Z,0
2017-05-13T00:09:50.570Z,0
2017-05-13T00:10:59.785Z,0
2017-05-13T00:12:08.744Z,0
2017-05-13T00:13:17.709Z,0
2017-05-13T00:14:26.669Z,0
2017-05-13T00:15:35.631Z,0
2017-05-13T00:16:44.836Z,0
2017-05-13T00:17:54.172Z,0
2017-05-13T00:19:03.130Z,0
2017-05-13T00:20:12.101Z,0
2017-05-13T00:21:21.057Z,0
2017-05-13T00:22:30.319Z,0
2017-05-13T00:23:39.282Z,0
2017-05-13T00:24:48.252Z,0
2017-05-13T00:25:57.215Z,0
2017-05-13T00:27:06.173Z,0
2017-05-13T00:28:15.378Z,0
2017-05-13T00:29:24.349Z,0
2017-05-13T00:30:33.311Z,0
2017-05-13T00:31:42.273Z,0
2017-05-13T00:32:51.237Z,0
2017-05-13T00:34:00.451Z,0
2017-05-13T00:35:09.423Z,0
2017-05-13T00:36:18.383Z,0
2017-05-13T00:37:27.339Z,0
2017-05-13T00:38:36.314Z,0
2017-05-13T00:39:45.854Z,0
2017-05-13T00:40:54.819Z,0
2017-05-13T00:42:03.786Z,0
2017-05-13T00:43:12.746Z,0
2017-05-13T00:44:21.706Z,0
2017-05-13T00:45:30.914Z,0
2017-05-13T00:46:39.872Z,0
2017-05-13T00:47:48.838Z,0
2017-05-13T00:48:58.122Z,0
2017-05-13T00:50:07.082Z,0
2017-05-13T00:51:16.289Z,0
2017-05-13T00:52:25.264Z,0
2017-05-13T00:53:34.224Z,0
2017-05-13T00:54:43.180Z,0
2017-05-13T00:55:52.136Z,0
2017-05-13T00:57:01.346Z,0
2017-05-13T00:58:10.402Z,0
2017-05-13T00:59:19.370Z,0
2017-05-13T01:00:28.330Z,0
2017-05-13T01:01:37.288Z,0
2017-05-13T01:02:46.501Z,0
2017-05-13T01:03:55.465Z,0
2017-05-13T01:05:04.424Z,0
2017-05-13T01:06:13.562Z,0
2017-05-13T01:07:22.514Z,0
2017-05-13T01:08:31.727Z,0
2017-05-13T01:09:40.692Z,0
2017-05-13T01:10:49.833Z,0
2017-05-13T01:11:58.798Z,0
2017-05-13T01:13:07.762Z,0
2017-05-13T01:14:17.018Z,0
2017-05-13T01:15:25.983Z,0
2017-05-13T01:16:34.947Z,0
2017-05-13T01:17:44.088Z,0
2017-05-13T01:18:53.091Z,0
2017-05-13T01:20:02.302Z,0
2017-05-13T01:21:11.263Z,0
2017-05-13T01:22:20.223Z,0
2017-05-13T01:23:29.510Z,0
2017-05-13T01:24:38.478Z,0
2017-05-13T01:25:47.691Z,0
2017-05-13T01:26:56.651Z,0
2017-05-13T01:28:05.609Z,0
2017-05-13T01:29:14.900Z,0
2017-05-13T01:30:23.856Z,0
2017-05-13T01:31:33.085Z,0
2017-05-13T01:32:42.042Z,0
2017-05-13T01:33:50.999Z,0
2017-05-13T01:34:59.966Z,0
2017-05-13T01:36:08.926Z,0
2017-05-13T01:37:18.138Z,0
2017-05-13T01:38:27.100Z,0
2017-05-13T01:39:36.056Z,0
2017-05-13T01:40:45.112Z,0
2017-05-13T01:41:54.158Z,0
2017-05-13T01:43:03.372Z,0
2017-05-13T01:44:12.332Z,0
2017-05-13T01:45:21.291Z,0
2017-05-13T01:46:30.253Z,0
2017-05-13T01:47:39.213Z,0
2017-05-13T01:48:48.444Z,0
2017-05-13T01:49:57.403Z,0
2017-05-13T01:51:06.363Z,0
2017-05-13T01:52:15.411Z,0
2017-05-13T01:53:24.371Z,0
2017-05-13T01:54:33.585Z,0
2017-05-13T01:55:42.559Z,0
2017-05-13T01:56:51.527Z,0
2017-05-13T01:58:00.577Z,0
2017-05-13T01:59:09.541Z,0
2017-05-13T02:00:18.750Z,0
2017-05-13T02:01:27.717Z,0
2017-05-13T02:02:36.697Z,0
2017-05-13T02:03:45.657Z,0
2017-05-13T02:04:54.616Z,0
2017-05-13T02:06:03.827Z,0
2017-05-13T02:07:12.788Z,0
2017-05-13T02:08:21.751Z,0
2017-05-13T02:09:30.717Z,0
2017-05-13T02:10:39.848Z,0
2017-05-13T02:11:49.134Z,0
2017-05-13T02:12:58.184Z,0
2017-05-13T02:14:07.233Z,0
2017-05-13T02:15:16.196Z,0
2017-05-13T02:16:25.152Z,0
2017-05-13T02:17:34.362Z,0
2017-05-13T02:18:43.321Z,0
2017-05-13T02:19:52.279Z,0
2017-05-13T02:21:01.244Z,0
2017-05-13T02:22:10.200Z,0
2017-05-13T02:23:19.415Z,0
2017-05-13T02:24:28.505Z,0
2017-05-13T02:25:37.459Z,0
2017-05-13T02:26:46.434Z,0
2017-05-13T02:27:55.718Z,0
2017-05-13T02:29:04.934Z,0
2017-05-13T02:30:13.903Z,0
2017-05-13T02:31:22.950Z,0
2017-05-13T02:32:31.910Z,0
2017-05-13T02:33:40.954Z,0
2017-05-13T02:34:50.252Z,0
2017-05-13T02:35:59.251Z,0
2017-05-13T02:37:08.216Z,0
2017-05-13T02:38:17.178Z,0
2017-05-13T02:39:26.136Z,0
2017-05-13T02:40:35.343Z,0
2017-05-13T02:41:44.306Z,0
2017-05-13T02:42:53.268Z,0
2017-05-13T02:44:02.229Z,0
2017-05-13T02:45:11.182Z,0
2017-05-13T02:46:20.387Z,0
2017-05-13T02:47:29.343Z,0
2017-05-13T02:48:38.302Z,0
2017-05-13T02:49:47.266Z,0
2017-05-13T02:50:56.227Z,0
2017-05-13T02:52:05.436Z,0
2017-05-13T02:53:14.395Z,4
2017-05-13T02:54:23.357Z,0
2017-05-13T02:55:32.316Z,0
2017-05-13T02:56:41.414Z,0
2017-05-13T02:57:50.623Z,0
2017-05-13T02:58:59.591Z,4
2017-05-13T03:00:08.554Z,4
2017-05-13T03:01:17.516Z,4
2017-05-13T03:02:26.559Z,4
2017-05-13T03:03:35.768Z,0
2017-05-13T03:04:44.734Z,4
2017-05-13T03:05:55.761Z,4
2017-05-13T03:07:04.730Z,4
2017-05-13T03:08:13.692Z,4
2017-05-13T03:09:22.948Z,4
2017-05-13T03:10:31.911Z,8
2017-05-13T03:11:40.863Z,8
2017-05-13T03:12:50.153Z,4
2017-05-13T03:13:59.123Z,8
2017-05-13T03:15:08.344Z,8
2017-05-13T03:16:17.328Z,4
2017-05-13T03:17:26.287Z,8
2017-05-13T03:18:35.247Z,4
2017-05-13T03:19:44.208Z,8
2017-05-13T03:20:53.472Z,8
2017-05-13T03:22:02.524Z,8
2017-05-13T03:23:11.486Z,12
2017-05-13T03:24:20.448Z,12
2017-05-13T03:25:29.407Z,12
2017-05-13T03:26:38.723Z,12
2017-05-13T03:27:48.098Z,16
2017-05-13T03:28:57.385Z,12
2017-05-13T03:30:06.445Z,16
2017-05-13T03:31:15.493Z,16
2017-05-13T03:32:24.755Z,20
2017-05-13T03:33:33.797Z,24
2017-05-13T03:34:42.847Z,24
2017-05-13T03:35:51.812Z,28
2017-05-13T03:37:00.772Z,32
2017-05-13T03:38:09.981Z,36
2017-05-13T03:39:18.948Z,40
2017-05-13T03:40:27.909Z,48
2017-05-13T03:41:36.863Z,56
2017-05-13T03:42:45.825Z,64
2017-05-13T03:43:55.126Z,76
2017-05-13T03:45:04.089Z,80
2017-05-13T03:46:13.047Z,84
2017-05-13T03:47:22.007Z,88
2017-05-13T03:48:31.058Z,84
2017-05-13T03:49:40.412Z,84
2017-05-13T03:50:49.425Z,80
2017-05-13T03:51:58.388Z,76
2017-05-13T03:53:07.350Z,76
2017-05-13T03:54:16.308Z,76
2017-05-13T03:55:25.841Z,76
2017-05-13T03:56:34.798Z,80
2017-05-13T03:57:43.759Z,84
2017-05-13T03:58:52.714Z,84
2017-05-13T04:00:01.677Z,84
2017-05-13T04:01:10.887Z,88
2017-05-13T04:02:19.849Z,84
2017-05-13T04:03:28.812Z,80
2017-05-13T04:04:37.771Z,76
2017-05-13T04:05:46.728Z,84
2017-05-13T04:06:55.987Z,96
2017-05-13T04:08:04.943Z,112
2017-05-13T04:09:13.907Z,136
2017-05-13T04:10:22.950Z,152
2017-05-13T04:11:31.908Z,164
2017-05-13T04:12:41.122Z,176
2017-05-13T04:13:50.090Z,188
2017-05-13T04:14:59.052Z,196
2017-05-13T04:16:08.006Z,208
2017-05-13T04:17:16.966Z,216
2017-05-13T04:18:26.238Z,212
2017-05-13T04:19:35.195Z,200
2017-05-13T04:20:44.153Z,188
2017-05-13T04:21:53.162Z,180
2017-05-13T04:23:02.126Z,176
2017-05-13T04:24:11.384Z,172
2017-05-13T04:25:20.433Z,156
2017-05-13T04:26:29.437Z,136
2017-05-13T04:27:38.399Z,128
2017-05-13T04:28:47.688Z,128
2017-05-13T04:29:56.897Z,132
2017-05-13T04:31:05.862Z,136
2017-05-13T04:32:14.872Z,144
2017-05-13T04:33:23.833Z,144
2017-05-13T04:34:32.795Z,148
2017-05-13T04:35:42.002Z,160
2017-05-13T04:36:50.960Z,168
2017-05-13T04:38:00.001Z,180
2017-05-13T04:39:09.048Z,184
2017-05-13T04:40:18.005Z,188
2017-05-13T04:41:27.221Z,204
2017-05-13T04:42:36.507Z,216
2017-05-13T04:43:45.554Z,232
2017-05-13T04:44:54.513Z,244
2017-05-13T04:46:03.472Z,256
2017-05-13T04:47:12.683Z,264
2017-05-13T04:48:21.642Z,268
2017-05-13T04:49:30.704Z,272
2017-05-13T04:50:39.665Z,288
2017-05-13T04:51:48.627Z,312
2017-05-13T04:52:57.879Z,364
2017-05-13T04:54:06.934Z,432
2017-05-13T04:55:15.890Z,492
2017-05-13T04:56:24.846Z,516
2017-05-13T04:57:33.804Z,532
2017-05-13T04:58:43.396Z,548
2017-05-13T04:59:52.527Z,568
2017-05-13T05:01:01.498Z,572
2017-05-13T05:02:10.457Z,580
2017-05-13T05:03:19.413Z,560
2017-05-13T05:04:28.668Z,496
2017-05-13T05:05:37.715Z,432
2017-05-13T05:06:46.671Z,384
2017-05-13T05:07:55.632Z,340
2017-05-13T05:09:04.601Z,316
2017-05-13T05:10:13.808Z,300
2017-05-13T05:11:23.102Z,292
2017-05-13T05:12:32.151Z,288
2017-05-13T05:13:41.108Z,284
2017-05-13T05:14:50.064Z,288
2017-05-13T05:15:59.278Z,296
2017-05-13T05:17:08.232Z,312
2017-05-13T05:18:17.195Z,324
2017-05-13T05:19:26.154Z,324
2017-05-13T05:20:35.208Z,332
2017-05-13T05:21:44.463Z,336
2017-05-13T05:22:53.519Z,336
2017-05-13T05:24:02.481Z,340
2017-05-13T05:25:11.435Z,348
2017-05-13T05:26:20.723Z,360
2017-05-13T05:27:29.984Z,368
2017-05-13T05:28:38.944Z,368
2017-05-13T05:29:47.905Z,368
2017-05-13T05:30:56.950Z,372
2017-05-13T05:32:05.914Z,360
2017-05-13T05:33:15.121Z,352
2017-05-13T05:34:24.082Z,348
2017-05-13T05:35:33.041Z,352
2017-05-13T05:36:41.995Z,352
2017-05-13T05:37:51.038Z,360
2017-05-13T05:39:00.300Z,368
2017-05-13T05:40:09.256Z,364
2017-05-13T05:41:18.216Z,380
2017-05-13T05:42:27.172Z,380
2017-05-13T05:43:36.129Z,384
2017-05-13T05:44:45.346Z,380
2017-05-13T05:45:54.309Z,376
2017-05-13T05:47:03.268Z,372
2017-05-13T05:48:12.223Z,364
2017-05-13T05:49:21.312Z,348
2017-05-13T05:50:30.572Z,324
2017-05-13T05:51:39.683Z,336
2017-05-13T05:52:48.668Z,336
2017-05-13T05:53:57.624Z,348
2017-05-13T05:55:06.589Z,360
2017-05-13T05:56:15.798Z,396
2017-05-13T05:57:24.758Z,428
2017-05-13T05:58:33.804Z,452
2017-05-13T05:59:42.763Z,456
2017-05-13T06:00:51.725Z,452
2017-05-13T06:02:01.016Z,460
2017-05-13T06:03:09.972Z,472
2017-05-13T06:04:18.933Z,476
2017-05-13T06:05:27.894Z,460
2017-05-13T06:06:36.850Z,468
2017-05-13T06:07:46.061Z,492
2017-05-13T06:08:55.016Z,528
2017-05-13T06:10:03.972Z,576
2017-05-13T06:11:12.933Z,604
2017-05-13T06:12:21.894Z,620
2017-05-13T06:13:31.164Z,672
2017-05-13T06:14:40.142Z,740
2017-05-13T06:15:49.098Z,784
2017-05-13T06:16:58.059Z,860
2017-05-13T06:18:07.016Z,888
2017-05-13T06:19:16.220Z,932
2017-05-13T06:20:25.178Z,944
2017-05-13T06:21:34.139Z,944
2017-05-13T06:22:43.109Z,960
2017-05-13T06:23:52.062Z,980
2017-05-13T06:25:01.324Z,940
2017-05-13T06:26:10.370Z,928
2017-05-13T06:27:19.441Z,940
2017-05-13T06:28:28.402Z,872
2017-05-13T06:29:37.359Z,812
2017-05-13T06:30:46.755Z,704
2017-05-13T06:31:55.709Z,616
2017-05-13T06:33:04.666Z,580
2017-05-13T06:34:13.625Z,624
2017-05-13T06:35:22.670Z,688
2017-05-13T06:36:31.981Z,708
2017-05-13T06:37:40.934Z,740
2017-05-13T06:38:50.224Z,752
2017-05-13T06:39:59.184Z,696
2017-05-13T06:41:08.142Z,668
2017-05-13T06:42:17.435Z,700
2017-05-13T06:43:26.394Z,752
2017-05-13T06:44:35.345Z,860
2017-05-13T06:45:44.300Z,952
2017-05-13T06:46:53.352Z,1024
2017-05-13T06:48:02.561Z,1116
2017-05-13T06:49:11.519Z,1188
2017-05-13T06:50:20.475Z,1160
2017-05-13T06:51:29.572Z,1068
2017-05-13T06:52:38.534Z,1120
2017-05-13T06:53:47.796Z,1188
2017-05-13T06:54:56.754Z,1212
2017-05-13T06:56:05.722Z,1384
2017-05-13T06:57:15.010Z,1540
2017-05-13T06:58:23.981Z,1548
2017-05-13T06:59:33.244Z,1476
2017-05-13T07:00:42.291Z,1368
2017-05-13T07:01:51.285Z,1240
2017-05-13T07:03:00.249Z,1240
2017-05-13T07:04:09.298Z,1436
2017-05-13T07:05:18.513Z,1580
2017-05-13T07:06:27.467Z,1576
2017-05-13T07:07:36.427Z,1468
2017-05-13T07:08:45.808Z,1288
2017-05-13T07:09:54.766Z,1128
2017-05-13T07:11:04.025Z,1004
2017-05-13T07:12:12.989Z,872
2017-05-13T07:13:21.949Z,772
2017-05-13T07:14:31.003Z,792
2017-05-13T07:15:39.971Z,792
2017-05-13T07:16:49.966Z,812
2017-05-13T07:17:58.920Z,828
2017-05-13T07:19:07.969Z,820
2017-05-13T07:20:16.926Z,816
2017-05-13T07:21:25.972Z,892
2017-05-13T07:22:35.182Z,920
2017-05-13T07:23:44.145Z,1032
2017-05-13T07:24:53.114Z,1100
2017-05-13T07:26:02.078Z,1172
2017-05-13T07:27:11.037Z,1228
2017-05-13T07:28:20.249Z,1236
2017-05-13T07:29:29.300Z,1288
2017-05-13T07:30:38.262Z,1508
2017-05-13T07:31:47.226Z,1748
2017-05-13T07:32:56.224Z,1928
2017-05-13T07:34:05.518Z,2068
2017-05-13T07:35:14.475Z,2188
2017-05-13T07:36:23.436Z,2184
2017-05-13T07:37:32.446Z,2084
2017-05-13T07:38:41.410Z,1836
2017-05-13T07:39:50.675Z,1624
2017-05-13T07:40:59.634Z,1512
2017-05-13T07:42:08.594Z,1288
2017-05-13T07:43:17.604Z,1080
2017-05-13T07:44:26.568Z,960
2017-05-13T07:45:35.823Z,916
2017-05-13T07:46:44.794Z,956
2017-05-13T07:47:54.081Z,1020
2017-05-13T07:49:03.132Z,1056
2017-05-13T07:50:12.091Z,1016
2017-05-13T07:51:21.303Z,956
2017-05-13T07:52:30.258Z,928
2017-05-13T07:53:39.348Z,924
2017-05-13T07:54:48.408Z,916
2017-05-13T07:55:57.368Z,880
2017-05-13T07:57:06.631Z,844
2017-05-13T07:58:15.587Z,828
2017-05-13T07:59:24.555Z,828
2017-05-13T08:00:33.517Z,844
2017-05-13T08:01:42.473Z,852
2017-05-13T08:02:51.730Z,864
2017-05-13T08:04:00.691Z,908
2017-05-13T08:05:09.649Z,944
2017-05-13T08:06:18.612Z,888
2017-05-13T08:07:27.660Z,908
2017-05-13T08:08:37.007Z,1000
2017-05-13T08:09:45.965Z,1088
2017-05-13T08:10:54.927Z,1172
2017-05-13T08:12:04.213Z,1212
2017-05-13T08:13:13.535Z,1220
2017-05-13T08:14:22.746Z,1200
2017-05-13T08:15:31.707Z,1220
2017-05-13T08:16:40.670Z,1244
2017-05-13T08:17:49.628Z,1276
2017-05-13T08:18:58.591Z,1308
2017-05-13T08:20:07.858Z,1304
2017-05-13T08:21:16.820Z,1304
2017-05-13T08:22:25.781Z,1260
2017-05-13T08:23:34.782Z,1164
2017-05-13T08:24:43.823Z,1152
2017-05-13T08:25:53.040Z,1144
2017-05-13T08:27:02.003Z,1184
2017-05-13T08:28:11.049Z,988
2017-05-13T08:29:20.023Z,944
2017-05-13T08:30:28.980Z,1028
2017-05-13T08:31:38.326Z,1260
2017-05-13T08:32:47.284Z,1276
2017-05-13T08:33:56.247Z,1180
2017-05-13T08:35:05.299Z,1288
2017-05-13T08:36:14.255Z,1448
2017-05-13T08:37:23.469Z,1588
2017-05-13T08:38:32.433Z,1724
2017-05-13T08:39:41.395Z,1756
2017-05-13T08:40:50.361Z,1764
2017-05-13T08:41:59.323Z,1768
2017-05-13T08:43:08.593Z,1704
2017-05-13T08:44:17.554Z,1692
2017-05-13T08:45:26.511Z,1660
2017-05-13T08:46:35.470Z,1632
2017-05-13T08:47:44.438Z,1648
2017-05-13T08:48:53.655Z,1636
2017-05-13T08:50:02.699Z,1656
2017-05-13T08:51:11.660Z,1636
2017-05-13T08:52:20.936Z,1632
2017-05-13T08:53:29.891Z,1564
2017-05-13T08:54:39.201Z,1560
2017-05-13T08:55:48.162Z,1484
2017-05-13T08:56:57.122Z,1268
2017-05-13T08:58:06.080Z,1080
2017-05-13T08:59:15.038Z,1080
2017-05-13T09:00:24.248Z,1108
2017-05-13T09:01:33.209Z,1080
2017-05-13T09:02:42.300Z,1144
2017-05-13T09:03:51.589Z,1244
2017-05-13T09:05:00.580Z,1172
2017-05-13T09:06:09.843Z,1236
2017-05-13T09:07:18.810Z,1180
2017-05-13T09:08:27.944Z,1100
2017-05-13T09:09:36.949Z,896
2017-05-13T09:10:45.912Z,848
2017-05-13T09:11:55.173Z,748
2017-05-13T09:13:04.130Z,608
2017-05-13T09:14:13.088Z,504
2017-05-13T09:15:22.044Z,420
2017-05-13T09:16:31.008Z,332
2017-05-13T09:17:40.304Z,344
2017-05-13T09:18:49.441Z,388
2017-05-13T09:19:58.404Z,476
2017-05-13T09:21:07.411Z,524
2017-05-13T09:22:16.371Z,536
2017-05-13T09:23:25.630Z,468
2017-05-13T09:24:34.680Z,440
2017-05-13T09:25:43.639Z,652
2017-05-13T09:26:52.679Z,624
2017-05-13T09:28:01.641Z,556
2017-05-13T09:29:10.938Z,548
2017-05-13T09:30:19.907Z,468
2017-05-13T09:31:28.920Z,456
2017-05-13T09:32:38.052Z,548
2017-05-13T09:33:47.046Z,536
2017-05-13T09:34:56.305Z,596
2017-05-13T09:36:05.425Z,688
2017-05-13T09:37:14.385Z,712
2017-05-13T09:38:27.832Z,716
2017-05-13T09:39:38.979Z,880
2017-05-13T09:40:48.237Z,924
2017-05-13T09:41:57.192Z,952
2017-05-13T09:43:06.153Z,992
2017-05-13T09:44:15.119Z,872
2017-05-13T09:45:24.081Z,880
2017-05-13T09:46:33.288Z,928
2017-05-13T09:47:42.252Z,900
2017-05-13T09:48:51.216Z,848
2017-05-13T09:50:00.174Z,716
2017-05-13T09:51:09.131Z,608
2017-05-13T09:52:18.394Z,568
2017-05-13T09:53:27.439Z,572
2017-05-13T09:54:36.397Z,624
2017-05-13T09:55:45.357Z,684
2017-05-13T09:56:54.320Z,696
2017-05-13T09:58:03.533Z,720
2017-05-13T09:59:12.493Z,780
2017-05-13T10:00:21.449Z,840
2017-05-13T10:01:30.407Z,900
2017-05-13T10:02:39.456Z,968
2017-05-13T10:03:48.882Z,1060
2017-05-13T10:04:57.842Z,1116
2017-05-13T10:06:06.799Z,1180
2017-05-13T10:07:15.808Z,1204
2017-05-13T10:08:24.849Z,1180
2017-05-13T10:09:34.108Z,1168
2017-05-13T10:10:43.070Z,1244
2017-05-13T10:11:52.033Z,1364
2017-05-13T10:13:00.989Z,1512
2017-05-13T10:14:09.948Z,1676
2017-05-13T10:15:19.216Z,1792
2017-05-13T10:16:28.496Z,1804
2017-05-13T10:17:37.458Z,1796
2017-05-13T10:18:46.745Z,1812
2017-05-13T10:19:55.700Z,1884
2017-05-13T10:21:04.911Z,1952
2017-05-13T10:22:13.869Z,2044
2017-05-13T10:23:22.828Z,2104
2017-05-13T10:24:31.786Z,2176
2017-05-13T10:25:40.746Z,2276
2017-05-13T10:26:50.089Z,2300
2017-05-13T10:27:59.048Z,2332
2017-05-13T10:29:08.089Z,2376
2017-05-13T10:30:17.050Z,2504
2017-05-13T10:31:26.007Z,2660
2017-05-13T10:32:35.271Z,2624
2017-05-13T10:33:44.237Z,2560
2017-05-13T10:34:53.559Z,2640
2017-05-13T10:36:02.513Z,2612
2017-05-13T10:37:11.473Z,2688
2017-05-13T10:38:20.731Z,2768
2017-05-13T10:39:29.685Z,2860
2017-05-13T10:40:38.646Z,2836
2017-05-13T10:41:47.696Z,2684
2017-05-13T10:42:56.973Z,2600
2017-05-13T10:44:06.233Z,2716
2017-05-13T10:45:15.187Z,2608
2017-05-13T10:46:24.144Z,2364
2017-05-13T10:47:33.100Z,2368
2017-05-13T10:48:42.058Z,2252
2017-05-13T10:49:51.267Z,2444
2017-05-13T10:51:00.230Z,2616
2017-05-13T10:52:09.197Z,2492
2017-05-13T10:53:18.154Z,2436
2017-05-13T10:54:27.117Z,2608
2017-05-13T10:55:36.376Z,2500
2017-05-13T10:56:45.338Z,2288
2017-05-13T10:57:54.294Z,2212
2017-05-13T10:59:03.254Z,2228
2017-05-13T11:00:12.227Z,2256
2017-05-13T11:01:21.489Z,2140
2017-05-13T11:02:30.456Z,1948
2017-05-13T11:03:39.420Z,1972
2017-05-13T11:04:48.713Z,1996
2017-05-13T11:05:57.675Z,2008
2017-05-13T11:07:07.036Z,2008
2017-05-13T11:08:16.002Z,2024
2017-05-13T11:09:25.283Z,2052
2017-05-13T11:10:34.241Z,2092
2017-05-13T11:11:43.204Z,2116
2017-05-13T11:12:52.462Z,2136
2017-05-13T11:14:01.420Z,2148
2017-05-13T11:15:10.381Z,2156
2017-05-13T11:16:19.338Z,2148
2017-05-13T11:17:28.298Z,2124
2017-05-13T11:18:37.557Z,2144
2017-05-13T11:19:46.515Z,2196
2017-05-13T11:20:55.803Z,2240
2017-05-13T11:22:05.090Z,2256
2017-05-13T11:23:14.222Z,2288
2017-05-13T11:24:23.524Z,2356
2017-05-13T11:25:32.567Z,2452
2017-05-13T11:26:41.528Z,2588
2017-05-13T11:27:50.498Z,2660
2017-05-13T11:28:59.464Z,2656
2017-05-13T11:30:08.726Z,2668
2017-05-13T11:31:17.689Z,2636
2017-05-13T11:32:26.650Z,2500
2017-05-13T11:33:35.608Z,2268
2017-05-13T11:34:44.658Z,2308
2017-05-13T11:35:53.917Z,2460
2017-05-13T11:37:02.870Z,2520
2017-05-13T11:38:11.928Z,2504
2017-05-13T11:39:21.210Z,2280
2017-05-13T11:40:30.168Z,2112
2017-05-13T11:41:39.435Z,1960
2017-05-13T11:42:48.716Z,2024
2017-05-13T11:43:57.675Z,2164
2017-05-13T11:45:06.634Z,2260
2017-05-13T11:46:15.644Z,2072
2017-05-13T11:47:24.947Z,2104
2017-05-13T11:48:33.905Z,2204
2017-05-13T11:49:42.859Z,2384
2017-05-13T11:50:51.821Z,2532
2017-05-13T11:52:00.785Z,2608
2017-05-13T11:53:10.042Z,2628
2017-05-13T11:54:19.047Z,2528
2017-05-13T11:55:28.009Z,2452
2017-05-13T11:56:37.056Z,2476
2017-05-13T11:57:46.103Z,2504
2017-05-13T11:58:55.311Z,2528
2017-05-13T12:00:04.273Z,2496
2017-05-13T12:01:13.229Z,2488
2017-05-13T12:02:22.188Z,2452
2017-05-13T12:03:31.145Z,2428
2017-05-13T12:04:40.415Z,2360
2017-05-13T12:05:49.372Z,2288
2017-05-13T12:06:58.336Z,2296
2017-05-13T12:08:07.297Z,2360
2017-05-13T12:09:16.254Z,2268
2017-05-13T12:10:25.514Z,2168
2017-05-13T12:11:34.477Z,2192
2017-05-13T12:12:43.446Z,2392
2017-05-13T12:13:52.401Z,2616
2017-05-13T12:15:01.359Z,2840
2017-05-13T12:16:10.622Z,3052
2017-05-13T12:17:19.582Z,3204
2017-05-13T12:18:28.545Z,3416
2017-05-13T12:19:37.506Z,3656
2017-05-13T12:20:46.548Z,3976
2017-05-13T12:21:55.815Z,4132
2017-05-13T12:23:04.780Z,4240
2017-05-13T12:24:13.742Z,4236
2017-05-13T12:25:22.702Z,4384
2017-05-13T12:26:31.664Z,4444
2017-05-13T12:27:40.873Z,4540
2017-05-13T12:28:49.829Z,4568
2017-05-13T12:29:58.791Z,4364
2017-05-13T12:31:07.754Z,4196
2017-05-13T12:32:16.803Z,4304
2017-05-13T12:33:26.012Z,3896
2017-05-13T12:34:35.061Z,3784
2017-05-13T12:35:44.037Z,3728
2017-05-13T12:36:53.320Z,3248
2017-05-13T12:38:02.282Z,3160
2017-05-13T12:39:11.546Z,3272
2017-05-13T12:40:20.603Z,3404
2017-05-13T12:41:29.561Z,3412
2017-05-13T12:42:38.856Z,3488
2017-05-13T12:43:47.816Z,3416
2017-05-13T12:44:57.164Z,3852
2017-05-13T12:46:06.123Z,3600
2017-05-13T12:47:15.082Z,3432
2017-05-13T12:48:24.039Z,3176
2017-05-13T12:49:33.007Z,3152
2017-05-13T12:50:42.218Z,3172
2017-05-13T12:51:51.183Z,3208
2017-05-13T12:53:00.146Z,2912
2017-05-13T12:54:09.198Z,2984
2017-05-13T12:55:18.160Z,3068
2017-05-13T12:56:27.428Z,3144
2017-05-13T12:57:36.401Z,3404
2017-05-13T12:58:45.370Z,3624
2017-05-13T12:59:54.419Z,3564
2017-05-13T13:01:03.378Z,3132
2017-05-13T13:02:12.691Z,3212
2017-05-13T13:03:21.654Z,3292
2017-05-13T13:04:30.616Z,3404
2017-05-13T13:05:39.575Z,3500
2017-05-13T13:06:48.536Z,4104
2017-05-13T13:07:57.793Z,3792
2017-05-13T13:09:06.853Z,3732
2017-05-13T13:10:15.815Z,3884
2017-05-13T13:11:24.866Z,3816
2017-05-13T13:12:33.826Z,3604
2017-05-13T13:13:43.036Z,3532
2017-05-13T13:14:51.995Z,3336
2017-05-13T13:16:00.952Z,3528
2017-05-13T13:17:09.912Z,3364
2017-05-13T13:18:18.874Z,3172
2017-05-13T13:19:28.136Z,3156
2017-05-13T13:20:37.096Z,2956
2017-05-13T13:21:46.535Z,2968
2017-05-13T13:22:55.606Z,3168
2017-05-13T13:24:04.661Z,3044
2017-05-13T13:25:13.922Z,3008
2017-05-13T13:26:22.966Z,2876
2017-05-13T13:27:31.927Z,3008
2017-05-13T13:28:40.886Z,2996
2017-05-13T13:29:49.850Z,3044
2017-05-13T13:30:59.060Z,2920
2017-05-13T13:32:08.016Z,2860
2017-05-13T13:33:17.013Z,2820
2017-05-13T13:34:25.973Z,2812
2017-05-13T13:35:34.935Z,2856
2017-05-13T13:36:44.157Z,3072
2017-05-13T13:37:53.442Z,3352
2017-05-13T13:39:02.401Z,3588
2017-05-13T13:40:11.451Z,3868
2017-05-13T13:41:20.413Z,3836
2017-05-13T13:42:29.628Z,4016
2017-05-13T13:43:38.587Z,4400
2017-05-13T13:44:47.635Z,3596
2017-05-13T13:45:56.598Z,3540
2017-05-13T13:47:05.561Z,3520
2017-05-13T13:48:14.822Z,3772
2017-05-13T13:49:23.789Z,3296
2017-05-13T13:50:32.750Z,3224
2017-05-13T13:51:41.711Z,3900
2017-05-13T13:52:51.008Z,4228
2017-05-13T13:54:00.271Z,4280
2017-05-13T13:55:09.250Z,3668
2017-05-13T13:56:18.274Z,3280
2017-05-13T13:57:27.240Z,3028
2017-05-13T13:58:36.209Z,2428
2017-05-13T13:59:45.473Z,2472
2017-05-13T14:00:54.431Z,2600
2017-05-13T14:02:03.388Z,2316
2017-05-13T14:03:12.345Z,2196
2017-05-13T14:04:21.309Z,1980
2017-05-13T14:05:30.568Z,2080
2017-05-13T14:06:39.533Z,2068
2017-05-13T14:07:48.495Z,1976
2017-05-13T14:08:57.461Z,1860
2017-05-13T14:10:06.426Z,1972
2017-05-13T14:11:15.691Z,2216
2017-05-13T14:12:24.663Z,2224
2017-05-13T14:13:33.625Z,2332
2017-05-13T14:14:42.588Z,2308
2017-05-13T14:15:51.552Z,2100
2017-05-13T14:17:00.903Z,2228
2017-05-13T14:18:09.866Z,2320
2017-05-13T14:19:18.828Z,2496
2017-05-13T14:20:27.792Z,2352
2017-05-13T14:21:36.755Z,2324
2017-05-13T14:22:46.344Z,2268
2017-05-13T14:23:55.303Z,2248
2017-05-13T14:25:04.687Z,2132
2017-05-13T14:26:13.690Z,2152
2017-05-13T14:27:22.652Z,2104
2017-05-13T14:28:31.920Z,2012
2017-05-13T14:29:40.889Z,1752
2017-05-13T14:30:49.943Z,1824
2017-05-13T14:31:58.995Z,1804
2017-05-13T14:33:07.959Z,1768
2017-05-13T14:34:17.221Z,1708
2017-05-13T14:35:26.272Z,1896
2017-05-13T14:36:35.238Z,1912
2017-05-13T14:37:44.325Z,1924
2017-05-13T14:38:53.285Z,1956
2017-05-13T14:40:02.528Z,1988
2017-05-13T14:41:11.490Z,1948
2017-05-13T14:42:20.452Z,1804
2017-05-13T14:43:29.412Z,1624
2017-05-13T14:44:38.373Z,1540
2017-05-13T14:45:47.679Z,1328
2017-05-13T14:46:56.641Z,1136
2017-05-13T14:48:05.602Z,1104
2017-05-13T14:49:14.653Z,1116
2017-05-13T14:50:23.700Z,1100
2017-05-13T14:51:32.914Z,1156
2017-05-13T14:52:41.872Z,1236
2017-05-13T14:53:51.496Z,1244
2017-05-13T14:55:00.458Z,1164
2017-05-13T14:56:09.414Z,1076
2017-05-13T14:57:18.678Z,968
2017-05-13T14:58:27.636Z,876
2017-05-13T14:59:36.598Z,772
2017-05-13T15:00:45.569Z,720
2017-05-13T15:01:54.624Z,664
2017-05-13T15:03:03.836Z,644
2017-05-13T15:04:12.796Z,612
2017-05-13T15:05:21.843Z,600
2017-05-13T15:06:30.803Z,640
2017-05-13T15:07:39.942Z,688
2017-05-13T15:08:49.209Z,728
2017-05-13T15:09:58.495Z,776
2017-05-13T15:11:07.455Z,920
2017-05-13T15:12:16.415Z,1088
2017-05-13T15:13:25.706Z,1044
2017-05-13T15:14:34.973Z,860
2017-05-13T15:15:43.934Z,708
2017-05-13T15:16:52.904Z,612
2017-05-13T15:18:01.914Z,456
2017-05-13T15:19:10.874Z,380
2017-05-13T15:20:20.138Z,336
2017-05-13T15:21:29.103Z,260
2017-05-13T15:22:38.066Z,232
2017-05-13T15:23:47.030Z,192
2017-05-13T15:24:55.990Z,160
2017-05-13T15:26:05.577Z,140
2017-05-13T15:27:14.539Z,148
2017-05-13T15:28:23.500Z,172
2017-05-13T15:29:32.547Z,216
2017-05-13T15:30:41.513Z,304
2017-05-13T15:31:50.772Z,456
2017-05-13T15:32:59.732Z,468
2017-05-13T15:34:08.699Z,468
2017-05-13T15:35:17.661Z,512
2017-05-13T15:36:26.629Z,520
2017-05-13T15:37:35.986Z,500
2017-05-13T15:38:44.946Z,488
2017-05-13T15:39:54.012Z,472
2017-05-13T15:41:02.971Z,460
2017-05-13T15:42:11.932Z,456
2017-05-13T15:43:21.286Z,460
2017-05-13T15:44:30.247Z,480
2017-05-13T15:45:39.209Z,512
2017-05-13T15:46:48.169Z,552
2017-05-13T15:47:57.130Z,600
2017-05-13T15:49:06.345Z,648
2017-05-13T15:50:15.311Z,712
2017-05-13T15:51:24.276Z,720
2017-05-13T15:52:33.239Z,692